Kuna, ID

3:25 AM MDT on March 28, 2015 (GMT -0600)
Boise Air Term | | Change Station
CLOSE
Current Station
Airport
Location: Boise,
Elevation: 2867 ft
Nearby Weather Stations
Active Advisory: Wind Advisory Active Notice: Record Report

Elev 2867 ft 43.57 °N, 116.24 °W | Updated 32 minutes ago

Clear
Clear
55 °F
Feels Like 55 °F
N
6
Wind Variable Wind from East

Today
High -- | Low -- °F
--% Chance of Precip.
Yesterday
High -- | Low -- °F
Precip. -- in
7:34 AM 8:07 PM
First Quarter, 60% visible
Pressure 29.91 in
Visibility 10.0 miles
Clouds Clear
Dew Point 40 °F
Humidity 57%
Rainfall 0.00 in
Snow Depth Not available.
UV 0 out of 12
Pollen 7.70 out of 12
Air Quality Not available.
Flu Activity Not available.
METAR KBOI 280853Z 10005KT 10SM CLR 13/04 A2996 RMK AO2 SLP127 T01280044 53004

More Conditions Fewer Conditions

Pressure 29.91 in
Visibility 10.0 miles
Clouds Clear
Dew Point 40 °F
Humidity 57%
Rainfall 0.00 in
Snow Depth Not available.
UV 0 out of 12
Pollen 7.70 out of 12
Air Quality Not available.
Flu Activity Not available.
METAR KBOI 280853Z 10005KT 10SM CLR 13/04 A2996 RMK AO2 SLP127 T01280044 53004

More Conditions Fewer Conditions

10-Day Weather Forecast

Almanac

Astronomy

Mar. 28, 2015 Rise Set
Actual Time
Civil Twilight
Nautical Twilight
Astronomical Twilight
Moon
Length of Visible Light
Length of Day
Tomorrow will be .
, % of the Moon is Illuminated

Today's Extremes

State Highs State Lows

Community

WunderPhotos

Upload Photos

1,808,939 photos uploaded!

WunderBlogs® & News

Nearby

Air Quality

  Air Quality AQ Index Pollutant
Not available.

Snow Depth

Station Depth Elevation

Earthquake Activity

City Distance Mag. Time & Date
Minimum magnitude displayed is 2.5.

Coastal Water Temperatures

Place Temperature

Stations

Nearby Weather Stations

Station Location Temp. Windchill Dew Point Humidity Wind Precip. Elev Updated Type
                   
Wind Advisory
Statement as of 3:01 AM MDT on March 28, 2015

... Wind Advisory in effect from 10 am this morning to 6 PM MDT
this evening...

The National Weather Service in Boise has issued a Wind
Advisory for the upper Treasure valley east of Mountain Home... the
southwest Idaho Highlands... western Magic Valley... and southern
Twin Falls County... which is in effect from 10 am this morning to
6 PM MDT this afternoon.

* Winds... west 30 mph with gusts 40 to 45 mph.

* Timing... late-morning through afternoon following passage of a
cold front.

* Impacts... possible travel problems for high profile vehicles on
north-south roadways.

Precautionary/preparedness actions...

A Wind Advisory means that sustained winds of at least 30 mph...
or gusts of at least 45 mph are expected. Winds this strong can
make driving difficult... especially for high profile vehicles.
Use extra caution.